PWSweather.com
Personal Weather Stations
Station Observations
SEVNO44
Sevno, PrimskovoSI 1276

SevnoPrimskovoSI 1276

Lat: 45.9796285, Lon: 14.924044999999978

Elevation: 1706.0368

Station Type: WS-2307

www.primskovo.eu/vreme

High Low Average
Temperature 66.4°F19.1°C 55.4°F13.0°C 60.5°F15.8°C
Dew Point 61.4°F16.3°C 51.0°F10.6°C 56.7°F13.7°C
Winds 9.2 mph 14.8 kmh Calm Calm 2.0 mph SSW3.2 kmh SSW
Wind Gusts 9.2 mph14.8 kmh -- 3.0 mph4.8 kmh
Humidity 91% 83% 87%
Pressure 29.96 in1014.6 mb 29.84 in1010.5 mb -
Precipitation 1.37 in34.8 mm - -
Hour Temp Dew Point Humidity Winds Wind Gusts Pressure Precip Precip Rate Daily Precip Total
12:00 AM 55.4°F13.0°C 51.0°F10.6°C 85% 2.8 mph WNW4.5 kmh WNW 4.3 mph6.9 kmh 29.96 in1014.6 mb 0.00 in0.0 mm 0.00 in0.0 mm 0.00 in0.0 mm
12:05 AM 55.6°F13.1°C 51.1°F10.6°C 85% 3.1 mph WNW5.0 kmh WNW 4.3 mph6.9 kmh 29.95 in1014.2 mb 0.00 in0.0 mm 0.00 in0.0 mm 0.00 in0.0 mm
12:10 AM 55.6°F13.1°C 51.5°F10.8°C 86% 2.9 mph WNW4.7 kmh WNW 3.6 mph5.8 kmh 29.96 in1014.6 mb 0.00 in0.0 mm 0.00 in0.0 mm 0.00 in0.0 mm
12:15 AM 55.6°F13.1°C 51.5°F10.8°C 86% 3.3 mph WNW5.3 kmh WNW 5.4 mph8.7 kmh 29.96 in1014.6 mb 0.00 in0.0 mm 0.00 in0.0 mm 0.00 in0.0 mm
12:20 AM 55.9°F13.3°C 51.8°F11.0°C 86% 4.1 mph WNW6.6 kmh WNW 7.2 mph11.6 kmh 29.96 in1014.6 mb 0.00 in0.0 mm 0.00 in0.0 mm 0.00 in0.0 mm
12:25 AM 55.9°F13.3°C 51.8°F11.0°C 86% 5.9 mph WNW9.5 kmh WNW 7.2 mph11.6 kmh 29.96 in1014.6 mb 0.00 in0.0 mm 0.00 in0.0 mm 0.00 in0.0 mm
12:30 AM 56.1°F13.4°C 52.0°F11.1°C 86% 4.2 mph WNW6.8 kmh WNW 7.2 mph11.6 kmh 29.96 in1014.6 mb 0.00 in0.0 mm 0.00 in0.0 mm 0.00 in0.0 mm
12:35 AM 56.1°F13.4°C 52.0°F11.1°C 86% 2.8 mph WNW4.5 kmh WNW 8.1 mph13.0 kmh 29.96 in1014.6 mb 0.00 in0.0 mm 0.00 in0.0 mm 0.00 in0.0 mm
12:37 AM 56.1°F13.4°C 52.0°F11.1°C 86% 0.9 mph WNW1.4 kmh WNW 0.9 mph1.4 kmh 29.96 in1014.6 mb 0.00 in0.0 mm 0.00 in0.0 mm 0.00 in0.0 mm
12:40 AM 55.9°F13.3°C 51.8°F11.0°C 86% 2.6 mph WNW4.2 kmh WNW 8.1 mph13.0 kmh 29.95 in1014.2 mb 0.00 in0.0 mm 0.00 in0.0 mm 0.00 in0.0 mm
12:45 AM 56.1°F13.4°C 52.0°F11.1°C 86% 2.4 mph NW3.9 kmh NW 5.1 mph8.2 kmh 29.95 in1014.2 mb 0.00 in0.0 mm 0.00 in0.0 mm 0.00 in0.0 mm
12:50 AM 56.1°F13.4°C 52.3°F11.3°C 87% 4.5 mph WNW7.2 kmh WNW 5.8 mph9.3 kmh 29.96 in1014.6 mb 0.00 in0.0 mm 0.00 in0.0 mm 0.00 in0.0 mm
12:55 AM 56.1°F13.4°C 52.3°F11.3°C 87% 5.3 mph WNW8.5 kmh WNW 5.8 mph9.3 kmh 29.95 in1014.2 mb 0.00 in0.0 mm 0.00 in0.0 mm 0.00 in0.0 mm
01:00 AM 56.3°F13.5°C 52.5°F11.4°C 87% 4.9 mph NW7.9 kmh NW 5.8 mph9.3 kmh 29.95 in1014.2 mb 0.00 in0.0 mm 0.00 in0.0 mm 0.00 in0.0 mm
01:05 AM 56.5°F13.6°C 52.7°F11.5°C 87% 4.9 mph NW7.9 kmh NW 5.1 mph8.2 kmh 29.95 in1014.2 mb 0.00 in0.0 mm 0.00 in0.0 mm 0.00 in0.0 mm
01:10 AM 56.5°F13.6°C 52.7°F11.5°C 87% 5.1 mph WNW8.2 kmh WNW 5.1 mph8.2 kmh 29.95 in1014.2 mb 0.00 in0.0 mm 0.00 in0.0 mm 0.00 in0.0 mm
01:15 AM 56.5°F13.6°C 52.7°F11.5°C 87% 4.8 mph WNW7.7 kmh WNW 5.1 mph8.2 kmh 29.95 in1014.2 mb 0.00 in0.0 mm 0.00 in0.0 mm 0.00 in0.0 mm
01:20 AM 56.5°F13.6°C 52.7°F11.5°C 87% 3.4 mph NW5.5 kmh NW 5.1 mph8.2 kmh 29.95 in1014.2 mb 0.00 in0.0 mm 0.00 in0.0 mm 0.00 in0.0 mm
01:25 AM 57.0°F13.9°C 53.5°F11.9°C 88% 2.9 mph NNW4.7 kmh NNW 5.8 mph9.3 kmh 29.95 in1014.2 mb 0.00 in0.0 mm 0.00 in0.0 mm 0.00 in0.0 mm
01:30 AM 57.0°F13.9°C 53.5°F11.9°C 88% 4.2 mph NNE6.8 kmh NNE 5.8 mph9.3 kmh 29.94 in1013.9 mb 0.00 in0.0 mm 0.00 in0.0 mm 0.00 in0.0 mm
01:35 AM 57.0°F13.9°C 53.5°F11.9°C 88% 4.3 mph N6.9 kmh N 5.8 mph9.3 kmh 29.94 in1013.9 mb 0.00 in0.0 mm 0.00 in0.0 mm 0.00 in0.0 mm
01:37 AM 57.0°F13.9°C 53.5°F11.9°C 88% 3.6 mph NNW5.8 kmh NNW 3.6 mph5.8 kmh 29.94 in1013.9 mb 0.00 in0.0 mm 0.00 in0.0 mm 0.00 in0.0 mm
01:40 AM 57.0°F13.9°C 53.5°F11.9°C 88% 3.6 mph NNW5.8 kmh NNW 3.8 mph6.1 kmh 29.94 in1013.9 mb 0.00 in0.0 mm 0.00 in0.0 mm 0.00 in0.0 mm
01:45 AM 57.0°F13.9°C 53.5°F11.9°C 88% 3.6 mph NNW5.8 kmh NNW 3.6 mph5.8 kmh 29.94 in1013.9 mb 0.00 in0.0 mm 0.00 in0.0 mm 0.00 in0.0 mm
01:50 AM 57.6°F14.2°C 54.0°F12.2°C 88% 3.9 mph NNW6.3 kmh NNW 4.7 mph7.6 kmh 29.94 in1013.9 mb 0.00 in0.0 mm 0.00 in0.0 mm 0.00 in0.0 mm
01:55 AM 57.6°F14.2°C 54.0°F12.2°C 88% 4.0 mph N6.4 kmh N 4.7 mph7.6 kmh 29.94 in1013.9 mb 0.00 in0.0 mm 0.00 in0.0 mm 0.00 in0.0 mm
02:05 AM 57.6°F14.2°C 54.0°F12.2°C 88% 3.6 mph NNW5.8 kmh NNW 3.7 mph6.0 kmh 29.94 in1013.9 mb 0.00 in0.0 mm 0.00 in0.0 mm 0.00 in0.0 mm
02:10 AM 57.7°F14.3°C 54.2°F12.3°C 88% 4.0 mph NW6.4 kmh NW 6.3 mph10.1 kmh 29.94 in1013.9 mb 0.00 in0.0 mm 0.00 in0.0 mm 0.00 in0.0 mm
02:15 AM 57.7°F14.3°C 54.2°F12.3°C 88% 4.2 mph NW6.8 kmh NW 6.3 mph10.1 kmh 29.94 in1013.9 mb 0.00 in0.0 mm 0.00 in0.0 mm 0.00 in0.0 mm
02:20 AM 57.7°F14.3°C 54.2°F12.3°C 88% 3.7 mph NNW6.0 kmh NNW 6.3 mph10.1 kmh 29.95 in1014.2 mb 0.00 in0.0 mm 0.00 in0.0 mm 0.00 in0.0 mm
02:25 AM 57.7°F14.3°C 54.2°F12.3°C 88% 3.2 mph NNW5.1 kmh NNW 3.8 mph6.1 kmh 29.94 in1013.9 mb 0.00 in0.0 mm 0.00 in0.0 mm 0.00 in0.0 mm
02:30 AM 57.7°F14.3°C 54.2°F12.3°C 88% 2.9 mph N4.7 kmh N 3.8 mph6.1 kmh 29.94 in1013.9 mb 0.00 in0.0 mm 0.00 in0.0 mm 0.00 in0.0 mm
02:35 AM 57.7°F14.3°C 54.2°F12.3°C 88% 2.7 mph NNE4.3 kmh NNE 2.7 mph4.3 kmh 29.94 in1013.9 mb 0.00 in0.0 mm 0.00 in0.0 mm 0.00 in0.0 mm
02:37 AM 57.7°F14.3°C 54.2°F12.3°C 88% 2.7 mph NNE4.3 kmh NNE 2.7 mph4.3 kmh 29.94 in1013.9 mb 0.00 in0.0 mm 0.00 in0.0 mm 0.00 in0.0 mm
02:40 AM 57.9°F14.4°C 54.4°F12.4°C 88% 2.9 mph N4.7 kmh N 3.8 mph6.1 kmh 29.94 in1013.9 mb 0.00 in0.0 mm 0.00 in0.0 mm 0.00 in0.0 mm
02:45 AM 57.9°F14.4°C 54.4°F12.4°C 88% 3.5 mph NW5.6 kmh NW 3.8 mph6.1 kmh 29.94 in1013.9 mb 0.00 in0.0 mm 0.00 in0.0 mm 0.00 in0.0 mm
02:50 AM 57.9°F14.4°C 54.4°F12.4°C 88% 3.8 mph NW6.1 kmh NW 3.8 mph6.1 kmh 29.94 in1013.9 mb 0.00 in0.0 mm 0.00 in0.0 mm 0.00 in0.0 mm
02:55 AM 57.7°F14.3°C 54.2°F12.3°C 88% 4.0 mph NW6.4 kmh NW 4.9 mph7.9 kmh 29.94 in1013.9 mb 0.00 in0.0 mm 0.00 in0.0 mm 0.00 in0.0 mm
03:00 AM 57.7°F14.3°C 54.2°F12.3°C 88% 3.8 mph NW6.1 kmh NW 4.9 mph7.9 kmh 29.94 in1013.9 mb 0.00 in0.0 mm 0.00 in0.0 mm 0.00 in0.0 mm
03:05 AM 57.7°F14.3°C 54.2°F12.3°C 88% 3.1 mph NW5.0 kmh NW 4.9 mph7.9 kmh 29.94 in1013.9 mb 0.00 in0.0 mm 0.00 in0.0 mm 0.00 in0.0 mm
03:10 AM 57.9°F14.4°C 54.4°F12.4°C 88% 2.8 mph ENE4.5 kmh ENE 2.9 mph4.7 kmh 29.94 in1013.9 mb 0.00 in0.0 mm 0.00 in0.0 mm 0.00 in0.0 mm
03:15 AM 57.9°F14.4°C 54.4°F12.4°C 88% 2.4 mph ENE3.9 kmh ENE 2.9 mph4.7 kmh 29.94 in1013.9 mb 0.00 in0.0 mm 0.00 in0.0 mm 0.00 in0.0 mm
03:20 AM 57.9°F14.4°C 54.4°F12.4°C 88% 2.6 mph N4.2 kmh N 4.3 mph6.9 kmh 29.93 in1013.5 mb 0.00 in0.0 mm 0.00 in0.0 mm 0.00 in0.0 mm
03:25 AM 58.1°F14.5°C 54.9°F12.7°C 89% 2.9 mph NW4.7 kmh NW 4.3 mph6.9 kmh 29.94 in1013.9 mb 0.00 in0.0 mm 0.00 in0.0 mm 0.00 in0.0 mm
03:30 AM 58.1°F14.5°C 54.9°F12.7°C 89% 2.8 mph NNW4.5 kmh NNW 5.6 mph9.0 kmh 29.93 in1013.5 mb 0.00 in0.0 mm 0.00 in0.0 mm 0.00 in0.0 mm
03:35 AM 58.1°F14.5°C 54.9°F12.7°C 89% 4.1 mph NW6.6 kmh NW 5.6 mph9.0 kmh 29.93 in1013.5 mb 0.00 in0.0 mm 0.00 in0.0 mm 0.00 in0.0 mm
03:37 AM 58.1°F14.5°C 54.9°F12.7°C 89% 4.0 mph WNW6.4 kmh WNW 4.0 mph6.4 kmh 29.93 in1013.5 mb 0.00 in0.0 mm 0.00 in0.0 mm 0.00 in0.0 mm
03:40 AM 58.3°F14.6°C 54.7°F12.6°C 88% 4.1 mph NW6.6 kmh NW 5.6 mph9.0 kmh 29.93 in1013.5 mb 0.00 in0.0 mm 0.00 in0.0 mm 0.00 in0.0 mm
03:45 AM 58.3°F14.6°C 54.7°F12.6°C 88% 3.4 mph WNW5.5 kmh WNW 5.1 mph8.2 kmh 29.93 in1013.5 mb 0.00 in0.0 mm 0.00 in0.0 mm 0.00 in0.0 mm
03:50 AM 58.3°F14.6°C 54.7°F12.6°C 88% 4.3 mph WNW6.9 kmh WNW 5.8 mph9.3 kmh 29.93 in1013.5 mb 0.00 in0.0 mm 0.00 in0.0 mm 0.00 in0.0 mm
03:55 AM 58.5°F14.7°C 54.9°F12.7°C 88% 5.0 mph W8.0 kmh W 5.8 mph9.3 kmh 29.93 in1013.5 mb 0.00 in0.0 mm 0.00 in0.0 mm 0.00 in0.0 mm
04:00 AM 58.5°F14.7°C 54.9°F12.7°C 88% 5.2 mph WNW8.4 kmh WNW 5.8 mph9.3 kmh 29.93 in1013.5 mb 0.00 in0.0 mm 0.00 in0.0 mm 0.00 in0.0 mm
04:05 AM 58.6°F14.8°C 55.1°F12.8°C 88% 4.8 mph WNW7.7 kmh WNW 5.1 mph8.2 kmh 29.93 in1013.5 mb 0.00 in0.0 mm 0.00 in0.0 mm 0.00 in0.0 mm
04:10 AM 58.6°F14.8°C 55.1°F12.8°C 88% 4.1 mph WSW6.6 kmh WSW 5.1 mph8.2 kmh 29.92 in1013.2 mb 0.00 in0.0 mm 0.00 in0.0 mm 0.00 in0.0 mm
04:15 AM 58.8°F14.9°C 55.3°F12.9°C 88% 4.9 mph W7.9 kmh W 6.3 mph10.1 kmh 29.93 in1013.5 mb 0.00 in0.0 mm 0.00 in0.0 mm 0.00 in0.0 mm
04:20 AM 58.8°F14.9°C 55.3°F12.9°C 88% 4.6 mph NW7.4 kmh NW 6.3 mph10.1 kmh 29.92 in1013.2 mb 0.00 in0.0 mm 0.00 in0.0 mm 0.00 in0.0 mm
04:25 AM 58.8°F14.9°C 55.3°F12.9°C 88% 2.9 mph NW4.7 kmh NW 4.0 mph6.4 kmh 29.92 in1013.2 mb 0.00 in0.0 mm 0.00 in0.0 mm 0.00 in0.0 mm
04:30 AM 58.8°F14.9°C 55.3°F12.9°C 88% 3.2 mph WNW5.1 kmh WNW 4.7 mph7.6 kmh 29.92 in1013.2 mb 0.00 in0.0 mm 0.00 in0.0 mm 0.00 in0.0 mm
04:35 AM 59.2°F15.1°C 55.6°F13.1°C 88% 4.1 mph WNW6.6 kmh WNW 4.7 mph7.6 kmh 29.92 in1013.2 mb 0.00 in0.0 mm 0.00 in0.0 mm 0.00 in0.0 mm
04:37 AM 59.2°F15.1°C 55.6°F13.1°C 88% 2.5 mph WNW4.0 kmh WNW 2.5 mph4.0 kmh 29.92 in1013.2 mb 0.00 in0.0 mm 0.00 in0.0 mm 0.00 in0.0 mm
04:40 AM 59.4°F15.2°C 55.8°F13.2°C 88% 3.9 mph WNW6.3 kmh WNW 4.7 mph7.6 kmh 29.92 in1013.2 mb 0.00 in0.0 mm 0.00 in0.0 mm 0.00 in0.0 mm
04:45 AM 59.4°F15.2°C 55.8°F13.2°C 88% 4.0 mph WNW6.4 kmh WNW 4.5 mph7.2 kmh 29.92 in1013.2 mb 0.00 in0.0 mm 0.00 in0.0 mm 0.00 in0.0 mm
04:50 AM 59.5°F15.3°C 56.0°F13.3°C 88% 4.5 mph WNW7.2 kmh WNW 4.7 mph7.6 kmh 29.92 in1013.2 mb 0.00 in0.0 mm 0.00 in0.0 mm 0.00 in0.0 mm
04:55 AM 59.4°F15.2°C 55.5°F13.1°C 87% 4.9 mph WNW7.9 kmh WNW 7.6 mph12.2 kmh 29.92 in1013.2 mb 0.00 in0.0 mm 0.00 in0.0 mm 0.00 in0.0 mm
05:00 AM 59.4°F15.2°C 55.5°F13.1°C 87% 4.0 mph WNW6.4 kmh WNW 7.6 mph12.2 kmh 29.92 in1013.2 mb 0.00 in0.0 mm 0.00 in0.0 mm 0.00 in0.0 mm
05:05 AM 59.4°F15.2°C 55.5°F13.1°C 87% 4.1 mph W6.6 kmh W 6.5 mph10.5 kmh 29.91 in1012.9 mb 0.00 in0.0 mm 0.00 in0.0 mm 0.00 in0.0 mm
05:10 AM 59.4°F15.2°C 55.5°F13.1°C 87% 6.0 mph W9.7 kmh W 7.2 mph11.6 kmh 29.91 in1012.9 mb 0.00 in0.0 mm 0.00 in0.0 mm 0.00 in0.0 mm
05:15 AM 59.4°F15.2°C 55.5°F13.1°C 87% 4.9 mph WNW7.9 kmh WNW 7.2 mph11.6 kmh 29.91 in1012.9 mb 0.00 in0.0 mm 0.00 in0.0 mm 0.00 in0.0 mm
05:20 AM 59.4°F15.2°C 55.5°F13.1°C 87% 3.1 mph NW5.0 kmh NW 7.2 mph11.6 kmh 29.91 in1012.9 mb 0.00 in0.0 mm 0.00 in0.0 mm 0.00 in0.0 mm
05:25 AM 59.4°F15.2°C 55.5°F13.1°C 87% 2.9 mph NW4.7 kmh NW 2.9 mph4.7 kmh 29.91 in1012.9 mb 0.00 in0.0 mm 0.00 in0.0 mm 0.00 in0.0 mm
05:30 AM 59.4°F15.2°C 55.5°F13.1°C 87% 2.9 mph NW4.7 kmh NW 2.9 mph4.7 kmh 29.91 in1012.9 mb 0.00 in0.0 mm 0.00 in0.0 mm 0.00 in0.0 mm
05:35 AM 59.4°F15.2°C 55.5°F13.1°C 87% 2.9 mph NW4.7 kmh NW 2.9 mph4.7 kmh 29.91 in1012.9 mb 0.00 in0.0 mm 0.00 in0.0 mm 0.00 in0.0 mm
05:37 AM 59.2°F15.1°C 55.6°F13.1°C 88% Calm Calm -- 29.91 in1012.9 mb 0.00 in0.0 mm 0.00 in0.0 mm 0.00 in0.0 mm
05:40 AM 59.4°F15.2°C 55.5°F13.1°C 87% 2.9 mph NW4.7 kmh NW 2.9 mph4.7 kmh 29.91 in1012.9 mb 0.00 in0.0 mm 0.00 in0.0 mm 0.00 in0.0 mm
05:45 AM 59.4°F15.2°C 55.5°F13.1°C 87% 2.9 mph NW4.7 kmh NW 2.9 mph4.7 kmh 29.91 in1012.9 mb 0.00 in0.0 mm 0.00 in0.0 mm 0.00 in0.0 mm
05:50 AM 59.4°F15.2°C 55.5°F13.1°C 87% 2.9 mph NW4.7 kmh NW 2.9 mph4.7 kmh 29.91 in1012.9 mb 0.00 in0.0 mm 0.00 in0.0 mm 0.00 in0.0 mm
05:55 AM 59.4°F15.2°C 55.5°F13.1°C 87% 2.0 mph WNW3.2 kmh WNW 2.0 mph3.2 kmh 29.91 in1012.9 mb 0.00 in0.0 mm 0.00 in0.0 mm 0.00 in0.0 mm
06:00 AM 59.2°F15.1°C 55.3°F12.9°C 87% 0.8 mph WNW1.3 kmh WNW 2.7 mph4.3 kmh 29.91 in1012.9 mb 0.00 in0.0 mm 0.00 in0.0 mm 0.00 in0.0 mm
06:05 AM 59.2°F15.1°C 55.3°F12.9°C 87% 1.2 mph NW1.9 kmh NW 2.7 mph4.3 kmh 29.91 in1012.9 mb 0.00 in0.0 mm 0.00 in0.0 mm 0.00 in0.0 mm
06:10 AM 59.2°F15.1°C 55.3°F12.9°C 87% 2.3 mph NW3.7 kmh NW 3.6 mph5.8 kmh 29.91 in1012.9 mb 0.00 in0.0 mm 0.00 in0.0 mm 0.00 in0.0 mm
06:15 AM 59.2°F15.1°C 55.3°F12.9°C 87% 2.1 mph NW3.4 kmh NW 3.6 mph5.8 kmh 29.92 in1013.2 mb 0.00 in0.0 mm 0.00 in0.0 mm 0.00 in0.0 mm
06:20 AM 59.2°F15.1°C 55.3°F12.9°C 87% 2.3 mph NW3.7 kmh NW 2.9 mph4.7 kmh 29.91 in1012.9 mb 0.00 in0.0 mm 0.00 in0.0 mm 0.00 in0.0 mm
06:25 AM 59.2°F15.1°C 55.3°F12.9°C 87% 2.8 mph NW4.5 kmh NW 2.9 mph4.7 kmh 29.91 in1012.9 mb 0.00 in0.0 mm 0.00 in0.0 mm 0.00 in0.0 mm
06:30 AM 59.2°F15.1°C 55.3°F12.9°C 87% 2.9 mph NW4.7 kmh NW 2.9 mph4.7 kmh 29.91 in1012.9 mb 0.00 in0.0 mm 0.00 in0.0 mm 0.00 in0.0 mm
06:35 AM 59.2°F15.1°C 55.3°F12.9°C 87% 3.0 mph NNW4.8 kmh NNW 4.9 mph7.9 kmh 29.91 in1012.9 mb 0.00 in0.0 mm 0.00 in0.0 mm 0.00 in0.0 mm
06:37 AM 59.2°F15.1°C 55.3°F12.9°C 87% 4.9 mph N7.9 kmh N 4.9 mph7.9 kmh 29.91 in1012.9 mb 0.00 in0.0 mm 0.00 in0.0 mm 0.00 in0.0 mm
06:40 AM 59.2°F15.1°C 55.3°F12.9°C 87% 3.6 mph N5.8 kmh N 4.9 mph7.9 kmh 29.91 in1012.9 mb 0.00 in0.0 mm 0.00 in0.0 mm 0.00 in0.0 mm
06:45 AM 59.2°F15.1°C 55.3°F12.9°C 87% 5.6 mph NW9.0 kmh NW 7.4 mph11.9 kmh 29.91 in1012.9 mb 0.00 in0.0 mm 0.00 in0.0 mm 0.00 in0.0 mm
06:50 AM 59.2°F15.1°C 55.3°F12.9°C 87% 7.2 mph WNW11.6 kmh WNW 7.4 mph11.9 kmh 29.91 in1012.9 mb 0.00 in0.0 mm 0.00 in0.0 mm 0.00 in0.0 mm
06:55 AM 59.2°F15.1°C 55.3°F12.9°C 87% 7.4 mph WNW11.9 kmh WNW 7.4 mph11.9 kmh 29.92 in1013.2 mb 0.00 in0.0 mm 0.00 in0.0 mm 0.00 in0.0 mm
07:00 AM 59.2°F15.1°C 55.6°F13.1°C 88% 5.2 mph WNW8.4 kmh WNW 7.4 mph11.9 kmh 29.92 in1013.2 mb 0.00 in0.0 mm 0.00 in0.0 mm 0.00 in0.0 mm
07:05 AM 59.2°F15.1°C 55.6°F13.1°C 88% 3.1 mph NW5.0 kmh NW 7.4 mph11.9 kmh 29.91 in1012.9 mb 0.00 in0.0 mm 0.00 in0.0 mm 0.00 in0.0 mm
07:10 AM 59.2°F15.1°C 55.6°F13.1°C 88% 2.7 mph NW4.3 kmh NW 4.3 mph6.9 kmh 29.92 in1013.2 mb 0.00 in0.0 mm 0.00 in0.0 mm 0.00 in0.0 mm
07:15 AM 59.4°F15.2°C 55.8°F13.2°C 88% 2.9 mph N4.7 kmh N 4.5 mph7.2 kmh 29.92 in1013.2 mb 0.00 in0.0 mm 0.00 in0.0 mm 0.00 in0.0 mm
07:20 AM 59.4°F15.2°C 55.8°F13.2°C 88% 3.0 mph NNW4.8 kmh NNW 4.5 mph7.2 kmh 29.91 in1012.9 mb 0.00 in0.0 mm 0.00 in0.0 mm 0.00 in0.0 mm
07:25 AM 59.5°F15.3°C 56.0°F13.3°C 88% 2.6 mph NW4.2 kmh NW 3.1 mph5.0 kmh 29.92 in1013.2 mb 0.00 in0.0 mm 0.00 in0.0 mm 0.00 in0.0 mm
07:30 AM 59.5°F15.3°C 56.0°F13.3°C 88% 2.6 mph NW4.2 kmh NW 3.1 mph5.0 kmh 29.91 in1012.9 mb 0.00 in0.0 mm 0.00 in0.0 mm 0.00 in0.0 mm
07:35 AM 59.5°F15.3°C 56.0°F13.3°C 88% 2.7 mph NW4.3 kmh NW 4.7 mph7.6 kmh 29.92 in1013.2 mb 0.00 in0.0 mm 0.00 in0.0 mm 0.00 in0.0 mm
07:37 AM 59.5°F15.3°C 56.0°F13.3°C 88% 4.7 mph WNW7.6 kmh WNW 4.7 mph7.6 kmh 29.92 in1013.2 mb 0.00 in0.0 mm 0.00 in0.0 mm 0.00 in0.0 mm
07:40 AM 59.5°F15.3°C 56.0°F13.3°C 88% 2.3 mph WNW3.7 kmh WNW 4.7 mph7.6 kmh 29.92 in1013.2 mb 0.00 in0.0 mm 0.00 in0.0 mm 0.00 in0.0 mm
07:45 AM 59.7°F15.4°C 56.2°F13.4°C 88% 1.4 mph W2.3 kmh W 4.7 mph7.6 kmh 29.92 in1013.2 mb 0.00 in0.0 mm 0.00 in0.0 mm 0.00 in0.0 mm
07:50 AM 59.7°F15.4°C 56.2°F13.4°C 88% 1.6 mph N2.6 kmh N 3.1 mph5.0 kmh 29.92 in1013.2 mb 0.00 in0.0 mm 0.00 in0.0 mm 0.00 in0.0 mm
07:55 AM 59.9°F15.5°C 56.3°F13.5°C 88% 2.1 mph NNW3.4 kmh NNW 3.1 mph5.0 kmh 29.92 in1013.2 mb 0.00 in0.0 mm 0.00 in0.0 mm 0.00 in0.0 mm
08:00 AM 59.9°F15.5°C 56.3°F13.5°C 88% 2.0 mph WNW3.2 kmh WNW 2.2 mph3.5 kmh 29.91 in1012.9 mb 0.00 in0.0 mm 0.00 in0.0 mm 0.00 in0.0 mm
08:05 AM 60.1°F15.6°C 56.5°F13.6°C 88% 2.2 mph WNW3.5 kmh WNW 3.8 mph6.1 kmh 29.92 in1013.2 mb 0.00 in0.0 mm 0.00 in0.0 mm 0.00 in0.0 mm
08:10 AM 60.1°F15.6°C 56.2°F13.4°C 87% 2.5 mph WNW4.0 kmh WNW 3.8 mph6.1 kmh 29.92 in1013.2 mb 0.00 in0.0 mm 0.00 in0.0 mm 0.00 in0.0 mm
08:15 AM 60.1°F15.6°C 56.2°F13.4°C 87% 2.8 mph NW4.5 kmh NW 3.8 mph6.1 kmh 29.92 in1013.2 mb 0.00 in0.0 mm 0.00 in0.0 mm 0.00 in0.0 mm
08:20 AM 60.1°F15.6°C 56.2°F13.4°C 87% 3.0 mph NNE4.8 kmh NNE 3.4 mph5.5 kmh 29.92 in1013.2 mb 0.00 in0.0 mm 0.00 in0.0 mm 0.00 in0.0 mm
08:25 AM 60.1°F15.6°C 56.2°F13.4°C 87% 4.1 mph N6.6 kmh N 7.4 mph11.9 kmh 29.92 in1013.2 mb 0.00 in0.0 mm 0.00 in0.0 mm 0.00 in0.0 mm
08:30 AM 60.4°F15.8°C 56.6°F13.7°C 87% 5.5 mph NW8.9 kmh NW 7.4 mph11.9 kmh 29.92 in1013.2 mb 0.00 in0.0 mm 0.00 in0.0 mm 0.00 in0.0 mm
08:35 AM 60.6°F15.9°C 57.0°F13.9°C 88% 6.0 mph WNW9.7 kmh WNW 6.0 mph9.7 kmh 29.92 in1013.2 mb 0.00 in0.0 mm 0.00 in0.0 mm 0.00 in0.0 mm
08:37 AM 60.6°F15.9°C 57.0°F13.9°C 88% 6.0 mph WNW9.7 kmh WNW 6.0 mph9.7 kmh 29.92 in1013.2 mb 0.00 in0.0 mm 0.00 in0.0 mm 0.00 in0.0 mm
08:40 AM 60.6°F15.9°C 57.0°F13.9°C 88% 5.2 mph NW8.4 kmh NW 6.0 mph9.7 kmh 29.92 in1013.2 mb 0.00 in0.0 mm 0.00 in0.0 mm 0.00 in0.0 mm
08:45 AM 60.6°F15.9°C 57.0°F13.9°C 88% 4.1 mph N6.6 kmh N 6.0 mph9.7 kmh 29.92 in1013.2 mb 0.00 in0.0 mm 0.00 in0.0 mm 0.00 in0.0 mm
08:50 AM 60.6°F15.9°C 57.0°F13.9°C 88% 4.5 mph NW7.2 kmh NW 5.1 mph8.2 kmh 29.92 in1013.2 mb 0.00 in0.0 mm 0.00 in0.0 mm 0.00 in0.0 mm
08:55 AM 61.0°F16.1°C 57.4°F14.1°C 88% 4.6 mph WNW7.4 kmh WNW 5.1 mph8.2 kmh 29.92 in1013.2 mb 0.00 in0.0 mm 0.00 in0.0 mm 0.00 in0.0 mm
09:00 AM 61.0°F16.1°C 57.4°F14.1°C 88% 4.3 mph NNE6.9 kmh NNE 5.1 mph8.2 kmh 29.92 in1013.2 mb 0.00 in0.0 mm 0.00 in0.0 mm 0.00 in0.0 mm
09:05 AM 61.0°F16.1°C 57.4°F14.1°C 88% 3.9 mph NE6.3 kmh NE 4.7 mph7.6 kmh 29.92 in1013.2 mb 0.00 in0.0 mm 0.00 in0.0 mm 0.00 in0.0 mm
09:10 AM 61.2°F16.2°C 57.6°F14.2°C 88% 3.4 mph NW5.5 kmh NW 3.8 mph6.1 kmh 29.92 in1013.2 mb 0.00 in0.0 mm 0.00 in0.0 mm 0.00 in0.0 mm
09:15 AM 61.2°F16.2°C 57.6°F14.2°C 88% 3.6 mph NNW5.8 kmh NNW 3.8 mph6.1 kmh 29.92 in1013.2 mb 0.00 in0.0 mm 0.00 in0.0 mm 0.00 in0.0 mm
09:20 AM 61.3°F16.3°C 57.8°F14.3°C 88% 3.1 mph NNW5.0 kmh NNW 3.6 mph5.8 kmh 29.92 in1013.2 mb 0.00 in0.0 mm 0.00 in0.0 mm 0.00 in0.0 mm
09:25 AM 61.5°F16.4°C 57.9°F14.4°C 88% 2.5 mph NW4.0 kmh NW 3.6 mph5.8 kmh 29.91 in1012.9 mb 0.00 in0.0 mm 0.00 in0.0 mm 0.00 in0.0 mm
09:30 AM 61.5°F16.4°C 57.6°F14.2°C 87% 2.2 mph NNW3.5 kmh NNW 3.6 mph5.8 kmh 29.92 in1013.2 mb 0.00 in0.0 mm 0.00 in0.0 mm 0.00 in0.0 mm
09:35 AM 61.5°F16.4°C 57.6°F14.2°C 87% 2.1 mph NNE3.4 kmh NNE 3.6 mph5.8 kmh 29.91 in1012.9 mb 0.00 in0.0 mm 0.00 in0.0 mm 0.00 in0.0 mm
09:37 AM 61.5°F16.4°C 57.6°F14.2°C 87% 2.0 mph NNE3.2 kmh NNE 2.0 mph3.2 kmh 29.91 in1012.9 mb 0.00 in0.0 mm 0.00 in0.0 mm 0.00 in0.0 mm
09:40 AM 62.1°F16.7°C 58.1°F14.5°C 87% 1.9 mph N3.1 kmh N 2.0 mph3.2 kmh 29.92 in1013.2 mb 0.00 in0.0 mm 0.00 in0.0 mm 0.00 in0.0 mm
09:45 AM 62.2°F16.8°C 58.3°F14.6°C 87% 1.8 mph W2.9 kmh W 2.0 mph3.2 kmh 29.92 in1013.2 mb 0.00 in0.0 mm 0.00 in0.0 mm 0.00 in0.0 mm
09:50 AM 62.4°F16.9°C 58.5°F14.7°C 87% 2.4 mph WNW3.9 kmh WNW 4.5 mph7.2 kmh 29.92 in1013.2 mb 0.00 in0.0 mm 0.00 in0.0 mm 0.00 in0.0 mm
09:55 AM 62.4°F16.9°C 58.5°F14.7°C 87% 4.1 mph NW6.6 kmh NW 9.2 mph14.8 kmh 29.91 in1012.9 mb 0.00 in0.0 mm 0.00 in0.0 mm 0.00 in0.0 mm
10:00 AM 62.8°F17.1°C 58.9°F14.9°C 87% 7.2 mph WNW11.6 kmh WNW 9.2 mph14.8 kmh 29.91 in1012.9 mb 0.00 in0.0 mm 0.00 in0.0 mm 0.00 in0.0 mm
10:05 AM 62.8°F17.1°C 58.9°F14.9°C 87% 9.2 mph WNW14.8 kmh WNW 9.2 mph14.8 kmh 29.92 in1013.2 mb 0.00 in0.0 mm 0.00 in0.0 mm 0.00 in0.0 mm
10:10 AM 62.8°F17.1°C 58.9°F14.9°C 87% 9.2 mph WNW14.8 kmh WNW 9.2 mph14.8 kmh 29.92 in1013.2 mb 0.00 in0.0 mm 0.00 in0.0 mm 0.00 in0.0 mm
10:15 AM 63.3°F17.4°C 59.1°F15.1°C 86% 9.2 mph WNW14.8 kmh WNW 9.2 mph14.8 kmh 29.91 in1012.9 mb 0.00 in0.0 mm 0.00 in0.0 mm 0.00 in0.0 mm
10:20 AM 63.7°F17.6°C 59.4°F15.2°C 86% 6.5 mph WNW10.5 kmh WNW 9.2 mph14.8 kmh 29.91 in1012.9 mb 0.00 in0.0 mm 0.00 in0.0 mm 0.00 in0.0 mm
10:25 AM 63.7°F17.6°C 59.4°F15.2°C 86% 3.5 mph NW5.6 kmh NW 9.2 mph14.8 kmh 29.91 in1012.9 mb 0.00 in0.0 mm 0.00 in0.0 mm 0.00 in0.0 mm
10:30 AM 64.0°F17.8°C 59.8°F15.4°C 86% 2.6 mph NNW4.2 kmh NNW 3.8 mph6.1 kmh 29.91 in1012.9 mb 0.00 in0.0 mm 0.00 in0.0 mm 0.00 in0.0 mm
10:35 AM 64.2°F17.9°C 59.9°F15.5°C 86% 1.8 mph NNW2.9 kmh NNW 3.8 mph6.1 kmh 29.91 in1012.9 mb 0.00 in0.0 mm 0.00 in0.0 mm 0.00 in0.0 mm
10:37 AM 64.2°F17.9°C 59.9°F15.5°C 86% 1.3 mph N2.1 kmh N 1.3 mph2.1 kmh 29.91 in1012.9 mb 0.00 in0.0 mm 0.00 in0.0 mm 0.00 in0.0 mm
10:40 AM 64.2°F17.9°C 59.9°F15.5°C 86% 1.3 mph N2.1 kmh N 1.3 mph2.1 kmh 29.91 in1012.9 mb 0.00 in0.0 mm 0.00 in0.0 mm 0.00 in0.0 mm
10:45 AM 64.4°F18.0°C 59.8°F15.4°C 85% 1.7 mph NW2.7 kmh NW 2.7 mph4.3 kmh 29.91 in1012.9 mb 0.00 in0.0 mm 0.00 in0.0 mm 0.00 in0.0 mm
10:50 AM 64.6°F18.1°C 60.0°F15.6°C 85% 2.8 mph WNW4.5 kmh WNW 4.7 mph7.6 kmh 29.91 in1012.9 mb 0.00 in0.0 mm 0.00 in0.0 mm 0.00 in0.0 mm
10:55 AM 64.6°F18.1°C 60.0°F15.6°C 85% 3.5 mph WNW5.6 kmh WNW 4.7 mph7.6 kmh 29.91 in1012.9 mb 0.00 in0.0 mm 0.00 in0.0 mm 0.00 in0.0 mm
11:00 AM 64.9°F18.3°C 60.3°F15.7°C 85% 2.6 mph WNW4.2 kmh WNW 3.4 mph5.5 kmh 29.91 in1012.9 mb 0.00 in0.0 mm 0.00 in0.0 mm 0.00 in0.0 mm
11:05 AM 64.9°F18.3°C 60.0°F15.6°C 84% 1.8 mph WNW2.9 kmh WNW 3.4 mph5.5 kmh 29.91 in1012.9 mb 0.00 in0.0 mm 0.00 in0.0 mm 0.00 in0.0 mm
11:10 AM 64.9°F18.3°C 60.3°F15.7°C 85% 2.0 mph WNW3.2 kmh WNW 2.7 mph4.3 kmh 29.91 in1012.9 mb 0.00 in0.0 mm 0.00 in0.0 mm 0.00 in0.0 mm
11:15 AM 65.1°F18.4°C 60.5°F15.8°C 85% 2.3 mph WNW3.7 kmh WNW 2.7 mph4.3 kmh 29.90 in1012.5 mb 0.00 in0.0 mm 0.00 in0.0 mm 0.00 in0.0 mm
11:20 AM 65.1°F18.4°C 60.5°F15.8°C 85% 2.0 mph WNW3.2 kmh WNW 2.7 mph4.3 kmh 29.90 in1012.5 mb 0.00 in0.0 mm 0.00 in0.0 mm 0.00 in0.0 mm
11:25 AM 65.1°F18.4°C 60.2°F15.7°C 84% 1.3 mph WNW2.1 kmh WNW 2.2 mph3.5 kmh 29.90 in1012.5 mb 0.00 in0.0 mm 0.00 in0.0 mm 0.00 in0.0 mm
11:30 AM 65.5°F18.6°C 60.5°F15.8°C 84% 0.7 mph W1.1 kmh W 4.0 mph6.4 kmh 29.89 in1012.2 mb 0.00 in0.0 mm 0.00 in0.0 mm 0.00 in0.0 mm
11:35 AM 65.8°F18.8°C 60.9°F16.1°C 84% 1.3 mph W2.1 kmh W 4.0 mph6.4 kmh 29.89 in1012.2 mb 0.00 in0.0 mm 0.00 in0.0 mm 0.00 in0.0 mm
11:37 AM 65.8°F18.8°C 60.9°F16.1°C 84% Calm Calm -- 29.89 in1012.2 mb 0.00 in0.0 mm 0.00 in0.0 mm 0.00 in0.0 mm
11:40 AM 65.8°F18.8°C 60.9°F16.1°C 84% 1.0 mph W1.6 kmh W 4.0 mph6.4 kmh 29.89 in1012.2 mb 0.00 in0.0 mm 0.00 in0.0 mm 0.00 in0.0 mm
11:45 AM 66.0°F18.9°C 61.0°F16.1°C 84% 1.8 mph WNW2.9 kmh WNW 4.3 mph6.9 kmh 29.89 in1012.2 mb 0.00 in0.0 mm 0.00 in0.0 mm 0.00 in0.0 mm
11:50 AM 66.0°F18.9°C 61.0°F16.1°C 84% 2.5 mph WNW4.0 kmh WNW 4.3 mph6.9 kmh 29.89 in1012.2 mb 0.00 in0.0 mm 0.00 in0.0 mm 0.00 in0.0 mm
11:55 AM 66.2°F19.0°C 61.2°F16.2°C 84% 1.5 mph WNW2.4 kmh WNW 1.6 mph2.6 kmh 29.89 in1012.2 mb 0.00 in0.0 mm 0.00 in0.0 mm 0.00 in0.0 mm
12:00 PM 66.4°F19.1°C 61.4°F16.3°C 84% 1.6 mph WNW2.6 kmh WNW 1.6 mph2.6 kmh 29.89 in1012.2 mb 0.00 in0.0 mm 0.00 in0.0 mm 0.00 in0.0 mm
12:05 PM 66.4°F19.1°C 61.4°F16.3°C 84% 1.9 mph W3.1 kmh W 2.7 mph4.3 kmh 29.89 in1012.2 mb 0.00 in0.0 mm 0.00 in0.0 mm 0.00 in0.0 mm
12:10 PM 66.4°F19.1°C 61.4°F16.3°C 84% 1.8 mph WNW2.9 kmh WNW 2.7 mph4.3 kmh 29.89 in1012.2 mb 0.00 in0.0 mm 0.00 in0.0 mm 0.00 in0.0 mm
12:15 PM 66.2°F19.0°C 61.2°F16.2°C 84% 1.4 mph WNW2.3 kmh WNW 2.7 mph4.3 kmh 29.88 in1011.9 mb 0.00 in0.0 mm 0.00 in0.0 mm 0.00 in0.0 mm
12:20 PM 66.0°F18.9°C 60.7°F15.9°C 83% 1.9 mph WNW3.1 kmh WNW 2.5 mph4.0 kmh 29.88 in1011.9 mb 0.00 in0.0 mm 0.00 in0.0 mm 0.00 in0.0 mm
12:25 PM 66.0°F18.9°C 60.7°F15.9°C 83% 2.1 mph WNW3.4 kmh WNW 2.5 mph4.0 kmh 29.88 in1011.9 mb 0.00 in0.0 mm 0.00 in0.0 mm 0.00 in0.0 mm
12:30 PM 66.0°F18.9°C 61.0°F16.1°C 84% 2.0 mph WNW3.2 kmh WNW 2.5 mph4.0 kmh 29.88 in1011.9 mb 0.00 in0.0 mm 0.00 in0.0 mm 0.00 in0.0 mm
12:35 PM 66.0°F18.9°C 61.0°F16.1°C 84% 1.2 mph WNW1.9 kmh WNW 2.0 mph3.2 kmh 29.88 in1011.9 mb 0.00 in0.0 mm 0.00 in0.0 mm 0.00 in0.0 mm
12:37 PM 66.0°F18.9°C 61.0°F16.1°C 84% Calm Calm -- 29.88 in1011.9 mb 0.00 in0.0 mm 0.00 in0.0 mm 0.00 in0.0 mm
12:40 PM 66.0°F18.9°C 61.0°F16.1°C 84% 1.0 mph WNW1.6 kmh WNW 2.2 mph3.5 kmh 29.88 in1011.9 mb 0.00 in0.0 mm 0.00 in0.0 mm 0.00 in0.0 mm
12:45 PM 66.0°F18.9°C 61.0°F16.1°C 84% 1.6 mph WNW2.6 kmh WNW 3.1 mph5.0 kmh 29.88 in1011.9 mb 0.00 in0.0 mm 0.00 in0.0 mm 0.00 in0.0 mm
12:50 PM 65.8°F18.8°C 60.9°F16.1°C 84% 2.2 mph WNW3.5 kmh WNW 3.1 mph5.0 kmh 29.89 in1012.2 mb 0.00 in0.0 mm 0.00 in0.0 mm 0.00 in0.0 mm
12:55 PM 65.8°F18.8°C 60.9°F16.1°C 84% 2.0 mph WNW3.2 kmh WNW 3.1 mph5.0 kmh 29.88 in1011.9 mb 0.00 in0.0 mm 0.00 in0.0 mm 0.00 in0.0 mm
01:00 PM 65.7°F18.7°C 60.7°F15.9°C 84% 0.7 mph NW1.1 kmh NW 2.7 mph4.3 kmh 29.88 in1011.9 mb 0.00 in0.0 mm 0.00 in0.0 mm 0.00 in0.0 mm
01:05 PM 65.5°F18.6°C 60.5°F15.8°C 84% Calm Calm -- 29.88 in1011.9 mb 0.00 in0.0 mm 0.00 in0.0 mm 0.00 in0.0 mm
01:10 PM 65.5°F18.6°C 60.5°F15.8°C 84% Calm Calm -- 29.88 in1011.9 mb 0.00 in0.0 mm 0.00 in0.0 mm 0.00 in0.0 mm
01:15 PM 65.3°F18.5°C 60.3°F15.7°C 84% 0.6 mph N1.0 kmh N 1.3 mph2.1 kmh 29.88 in1011.9 mb 0.02 in0.5 mm 0.24 in6.1 mm 0.02 in0.5 mm
01:20 PM 65.1°F18.4°C 60.2°F15.7°C 84% 0.8 mph N1.3 kmh N 1.3 mph2.1 kmh 29.87 in1011.5 mb 0.02 in0.5 mm 0.00 in0.0 mm 0.02 in0.5 mm
01:25 PM 65.1°F18.4°C 60.2°F15.7°C 84% 0.2 mph N0.3 kmh N 1.3 mph2.1 kmh 29.87 in1011.5 mb 0.02 in0.5 mm 0.00 in0.0 mm 0.02 in0.5 mm
01:30 PM 64.9°F18.3°C 60.3°F15.7°C 85% Calm Calm -- 29.87 in1011.5 mb 0.02 in0.5 mm 0.00 in0.0 mm 0.02 in0.5 mm
01:35 PM 64.9°F18.3°C 60.3°F15.7°C 85% Calm Calm -- 29.87 in1011.5 mb 0.02 in0.5 mm 0.00 in0.0 mm 0.02 in0.5 mm
01:37 PM 64.9°F18.3°C 60.3°F15.7°C 85% Calm Calm -- 29.87 in1011.5 mb 0.02 in0.5 mm 0.00 in0.0 mm 0.02 in0.5 mm
01:40 PM 64.8°F18.2°C 60.1°F15.6°C 85% Calm Calm -- 29.87 in1011.5 mb 0.06 in1.5 mm 0.80 in20.3 mm 0.06 in1.5 mm
01:45 PM 64.8°F18.2°C 60.1°F15.6°C 85% Calm Calm -- 29.87 in1011.5 mb 0.06 in1.5 mm 0.00 in0.0 mm 0.06 in1.5 mm
01:50 PM 64.8°F18.2°C 60.1°F15.6°C 85% Calm Calm -- 29.87 in1011.5 mb 0.06 in1.5 mm 0.00 in0.0 mm 0.06 in1.5 mm
01:55 PM 64.6°F18.1°C 60.0°F15.6°C 85% Calm Calm -- 29.87 in1011.5 mb 0.06 in1.5 mm 0.00 in0.0 mm 0.06 in1.5 mm
02:00 PM 64.6°F18.1°C 60.0°F15.6°C 85% Calm Calm -- 29.87 in1011.5 mb 0.06 in1.5 mm 0.00 in0.0 mm 0.06 in1.5 mm
02:05 PM 64.2°F17.9°C 59.9°F15.5°C 86% Calm Calm -- 29.87 in1011.5 mb 0.06 in1.5 mm 0.00 in0.0 mm 0.06 in1.5 mm
02:10 PM 64.2°F17.9°C 59.9°F15.5°C 86% Calm Calm -- 29.87 in1011.5 mb 0.04 in1.0 mm 0.00 in0.0 mm 0.06 in1.5 mm
02:15 PM 64.2°F17.9°C 59.9°F15.5°C 86% 0.6 mph E1.0 kmh E 1.6 mph2.6 kmh 29.86 in1011.2 mb 0.04 in1.0 mm 0.00 in0.0 mm 0.06 in1.5 mm
02:20 PM 64.0°F17.8°C 59.8°F15.4°C 86% 1.3 mph E2.1 kmh E 1.6 mph2.6 kmh 29.86 in1011.2 mb 0.04 in1.0 mm 0.00 in0.0 mm 0.06 in1.5 mm
02:25 PM 63.9°F17.7°C 59.6°F15.3°C 86% 0.7 mph E1.1 kmh E 1.6 mph2.6 kmh 29.86 in1011.2 mb 0.04 in1.0 mm 0.00 in0.0 mm 0.06 in1.5 mm
02:30 PM 63.9°F17.7°C 59.6°F15.3°C 86% Calm Calm -- 29.86 in1011.2 mb 0.04 in1.0 mm 0.00 in0.0 mm 0.06 in1.5 mm
02:35 PM 63.3°F17.4°C 59.1°F15.1°C 86% 0.4 mph N0.6 kmh N 1.8 mph2.9 kmh 29.86 in1011.2 mb 0.04 in1.0 mm 0.00 in0.0 mm 0.06 in1.5 mm
02:37 PM 63.3°F17.4°C 59.1°F15.1°C 86% 1.3 mph NNE2.1 kmh NNE 1.3 mph2.1 kmh 29.86 in1011.2 mb 0.04 in1.0 mm 0.00 in0.0 mm 0.06 in1.5 mm
02:40 PM 63.1°F17.3°C 58.9°F14.9°C 86% 0.7 mph N1.1 kmh N 1.8 mph2.9 kmh 29.86 in1011.2 mb 0.00 in0.0 mm 0.00 in0.0 mm 0.06 in1.5 mm
02:45 PM 63.1°F17.3°C 58.9°F14.9°C 86% 0.2 mph NNE0.3 kmh NNE 1.3 mph2.1 kmh 29.86 in1011.2 mb 0.00 in0.0 mm 0.00 in0.0 mm 0.06 in1.5 mm
02:50 PM 62.8°F17.1°C 58.5°F14.7°C 86% Calm Calm -- 29.87 in1011.5 mb 0.00 in0.0 mm 0.00 in0.0 mm 0.06 in1.5 mm
02:55 PM 62.8°F17.1°C 58.5°F14.7°C 86% Calm Calm -- 29.87 in1011.5 mb 0.02 in0.5 mm 0.24 in6.1 mm 0.08 in2.0 mm
03:00 PM 62.6°F17.0°C 58.4°F14.7°C 86% Calm Calm -- 29.87 in1011.5 mb 0.02 in0.5 mm 0.00 in0.0 mm 0.08 in2.0 mm
03:05 PM 62.6°F17.0°C 58.7°F14.8°C 87% 0.3 mph N0.5 kmh N 0.7 mph1.1 kmh 29.86 in1011.2 mb 0.02 in0.5 mm 0.00 in0.0 mm 0.08 in2.0 mm
03:10 PM 62.6°F17.0°C 58.7°F14.8°C 87% 0.7 mph N1.1 kmh N 0.7 mph1.1 kmh 29.87 in1011.5 mb 0.02 in0.5 mm 0.00 in0.0 mm 0.08 in2.0 mm
03:15 PM 62.6°F17.0°C 58.7°F14.8°C 87% 0.9 mph NW1.4 kmh NW 2.0 mph3.2 kmh 29.86 in1011.2 mb 0.02 in0.5 mm 0.00 in0.0 mm 0.08 in2.0 mm
03:20 PM 62.2°F16.8°C 58.3°F14.6°C 87% 1.2 mph WNW1.9 kmh WNW 2.0 mph3.2 kmh 29.86 in1011.2 mb 0.19 in4.8 mm 2.04 in51.8 mm 0.24 in6.1 mm
03:25 PM 62.2°F16.8°C 58.3°F14.6°C 87% 0.6 mph W1.0 kmh W 2.0 mph3.2 kmh 29.85 in1010.8 mb 0.19 in4.8 mm 0.00 in0.0 mm 0.24 in6.1 mm
03:30 PM 62.1°F16.7°C 58.5°F14.7°C 88% Calm Calm -- 29.85 in1010.8 mb 0.20 in5.1 mm 0.12 in3.0 mm 0.27 in6.9 mm
03:35 PM 62.1°F16.7°C 58.5°F14.7°C 88% Calm Calm -- 29.84 in1010.5 mb 0.20 in5.1 mm 0.00 in0.0 mm 0.27 in6.9 mm
03:37 PM 62.1°F16.7°C 58.5°F14.7°C 88% Calm Calm -- 29.84 in1010.5 mb 0.20 in5.1 mm 0.00 in0.0 mm 0.27 in6.9 mm
03:40 PM 61.9°F16.6°C 58.3°F14.6°C 88% Calm Calm -- 29.84 in1010.5 mb 0.20 in5.1 mm 0.00 in0.0 mm 0.27 in6.9 mm
03:45 PM 61.9°F16.6°C 58.3°F14.6°C 88% 1.3 mph SE2.1 kmh SE 3.4 mph5.5 kmh 29.85 in1010.8 mb 0.20 in5.1 mm 0.00 in0.0 mm 0.27 in6.9 mm
03:50 PM 61.9°F16.6°C 58.3°F14.6°C 88% 1.3 mph SE2.1 kmh SE 3.4 mph5.5 kmh 29.86 in1011.2 mb 0.20 in5.1 mm 0.00 in0.0 mm 0.27 in6.9 mm
03:55 PM 61.9°F16.6°C 58.3°F14.6°C 88% 0.4 mph E0.6 kmh E 3.4 mph5.5 kmh 29.86 in1011.2 mb 0.22 in5.6 mm 0.24 in6.1 mm 0.31 in7.9 mm
04:00 PM 61.9°F16.6°C 58.3°F14.6°C 88% 0.6 mph S1.0 kmh S 1.3 mph2.1 kmh 29.87 in1011.5 mb 0.22 in5.6 mm 0.00 in0.0 mm 0.31 in7.9 mm
04:20 PM 61.3°F16.3°C 58.1°F14.5°C 89% 4.2 mph W6.8 kmh W 7.8 mph12.6 kmh 29.89 in1012.2 mb 0.24 in6.1 mm 0.06 in1.5 mm 0.49 in12.4 mm
04:25 PM 61.2°F16.2°C 58.2°F14.6°C 90% 2.2 mph NW3.5 kmh NW 7.8 mph12.6 kmh 29.87 in1011.5 mb 0.37 in9.4 mm 1.56 in39.6 mm 0.61 in15.5 mm
04:30 PM 61.0°F16.1°C 58.0°F14.4°C 90% 1.8 mph NE2.9 kmh NE 2.5 mph4.0 kmh 29.88 in1011.9 mb 0.35 in8.9 mm 0.00 in0.0 mm 0.61 in15.5 mm
04:35 PM 61.0°F16.1°C 58.0°F14.4°C 90% 2.4 mph NNE3.9 kmh NNE 2.5 mph4.0 kmh 29.88 in1011.9 mb 0.41 in10.4 mm 0.72 in18.3 mm 0.67 in17.0 mm
04:37 PM 61.0°F16.1°C 58.0°F14.4°C 90% 1.3 mph WSW2.1 kmh WSW 1.3 mph2.1 kmh 29.88 in1011.9 mb 0.41 in10.4 mm 0.00 in0.0 mm 0.67 in17.0 mm
04:40 PM 61.0°F16.1°C 58.0°F14.4°C 90% 1.9 mph N3.1 kmh N 2.5 mph4.0 kmh 29.89 in1012.2 mb 0.47 in11.9 mm 1.20 in30.5 mm 0.73 in18.5 mm
04:45 PM 60.8°F16.0°C 57.8°F14.3°C 90% 1.7 mph SW2.7 kmh SW 3.8 mph6.1 kmh 29.90 in1012.5 mb 0.47 in11.9 mm 0.00 in0.0 mm 0.73 in18.5 mm
04:50 PM 60.6°F15.9°C 57.7°F14.3°C 90% 4.4 mph S7.1 kmh S 8.3 mph13.4 kmh 29.91 in1012.9 mb 0.53 in13.5 mm 0.72 in18.3 mm 0.80 in20.3 mm
04:55 PM 60.6°F15.9°C 57.7°F14.3°C 90% 4.4 mph S7.1 kmh S 8.3 mph13.4 kmh 29.90 in1012.5 mb 0.63 in16.0 mm 1.20 in30.5 mm 0.94 in23.9 mm
05:00 PM 60.6°F15.9°C 57.7°F14.3°C 90% 1.1 mph SSE1.8 kmh SSE 3.8 mph6.1 kmh 29.90 in1012.5 mb 0.76 in19.3 mm 0.14 in3.6 mm 1.06 in26.9 mm
05:05 PM 60.4°F15.8°C 57.5°F14.2°C 90% 0.6 mph N1.0 kmh N 1.8 mph2.9 kmh 29.90 in1012.5 mb 0.76 in19.3 mm 0.00 in0.0 mm 1.16 in29.5 mm
05:10 PM 60.4°F15.8°C 57.5°F14.2°C 90% 0.7 mph NE1.1 kmh NE 1.8 mph2.9 kmh 29.90 in1012.5 mb 0.81 in20.6 mm 0.60 in15.2 mm 1.22 in31.0 mm
05:15 PM 60.1°F15.6°C 57.1°F13.9°C 90% 0.4 mph ENE0.6 kmh ENE 1.8 mph2.9 kmh 29.90 in1012.5 mb 0.81 in20.6 mm 0.00 in0.0 mm 1.22 in31.0 mm
05:20 PM 60.1°F15.6°C 57.1°F13.9°C 90% 0.4 mph S0.6 kmh S 1.6 mph2.6 kmh 29.90 in1012.5 mb 0.73 in18.5 mm 0.00 in0.0 mm 1.22 in31.0 mm
05:25 PM 60.1°F15.6°C 57.1°F13.9°C 90% 1.2 mph S1.9 kmh S 1.6 mph2.6 kmh 29.90 in1012.5 mb 0.63 in16.0 mm 0.00 in0.0 mm 1.24 in31.5 mm
05:30 PM 59.7°F15.4°C 56.8°F13.8°C 90% 1.2 mph S1.9 kmh S 1.6 mph2.6 kmh 29.88 in1011.9 mb 0.67 in17.0 mm 0.48 in12.2 mm 1.29 in32.8 mm
05:35 PM 59.5°F15.3°C 56.6°F13.7°C 90% 1.3 mph SSW2.1 kmh SSW 3.1 mph5.0 kmh 29.87 in1011.5 mb 0.65 in16.5 mm 0.00 in0.0 mm 1.33 in33.8 mm
05:37 PM 59.5°F15.3°C 56.6°F13.7°C 90% 3.1 mph SW5.0 kmh SW 3.1 mph5.0 kmh 29.87 in1011.5 mb 0.65 in16.5 mm 0.00 in0.0 mm 1.33 in33.8 mm
05:40 PM 59.5°F15.3°C 56.6°F13.7°C 90% 2.4 mph SW3.9 kmh SW 3.1 mph5.0 kmh 29.87 in1011.5 mb 0.61 in15.5 mm 0.00 in0.0 mm 1.35 in34.3 mm
05:45 PM 59.5°F15.3°C 56.6°F13.7°C 90% 2.8 mph SSW4.5 kmh SSW 4.7 mph7.6 kmh 29.87 in1011.5 mb 0.61 in15.5 mm 0.00 in0.0 mm 1.35 in34.3 mm
05:50 PM 59.5°F15.3°C 56.6°F13.7°C 90% 1.9 mph ESE3.1 kmh ESE 4.7 mph7.6 kmh 29.87 in1011.5 mb 0.53 in13.5 mm 0.00 in0.0 mm 1.35 in34.3 mm
05:55 PM 59.0°F15.0°C 56.1°F13.4°C 90% 0.6 mph S1.0 kmh S 2.5 mph4.0 kmh 29.87 in1011.5 mb 0.43 in10.9 mm 0.00 in0.0 mm 1.37 in34.8 mm
06:00 PM 59.0°F15.0°C 56.1°F13.4°C 90% 0.9 mph W1.4 kmh W 2.5 mph4.0 kmh 29.87 in1011.5 mb 0.31 in7.9 mm 0.00 in0.0 mm 1.37 in34.8 mm
06:05 PM 58.8°F14.9°C 55.9°F13.3°C 90% 1.3 mph W2.1 kmh W 2.5 mph4.0 kmh 29.88 in1011.9 mb 0.20 in5.1 mm 0.00 in0.0 mm 1.37 in34.8 mm
06:37 PM 58.5°F14.7°C 55.5°F13.1°C 90% Calm Calm -- 29.89 in1012.2 mb 0.04 in1.0 mm 0.00 in0.0 mm 1.37 in34.8 mm
07:37 PM 58.3°F14.6°C 55.4°F13.0°C 90% Calm Calm -- 29.92 in1013.2 mb 0.00 in0.0 mm 0.00 in0.0 mm 1.37 in34.8 mm
08:37 PM 58.5°F14.7°C 55.8°F13.2°C 91% Calm Calm -- 29.93 in1013.5 mb 0.00 in0.0 mm 0.00 in0.0 mm 1.37 in34.8 mm
09:37 PM 58.3°F14.6°C 55.7°F13.2°C 91% Calm Calm -- 29.94 in1013.9 mb 0.00 in0.0 mm 0.00 in0.0 mm 1.37 in34.8 mm
09:40 PM 58.3°F14.6°C 55.7°F13.2°C 91% Calm Calm -- 29.93 in1013.5 mb 0.00 in0.0 mm 0.00 in0.0 mm 1.37 in34.8 mm
09:45 PM 58.3°F14.6°C 55.4°F13.0°C 90% Calm Calm -- 29.93 in1013.5 mb 0.00 in0.0 mm 0.00 in0.0 mm 1.37 in34.8 mm
09:50 PM 58.3°F14.6°C 55.7°F13.2°C 91% 0.5 mph S0.8 kmh S 2.5 mph4.0 kmh 29.94 in1013.9 mb 0.00 in0.0 mm 0.00 in0.0 mm 1.37 in34.8 mm
09:55 PM 58.3°F14.6°C 55.4°F13.0°C 90% 1.1 mph S1.8 kmh S 2.5 mph4.0 kmh 29.94 in1013.9 mb 0.00 in0.0 mm 0.00 in0.0 mm 1.37 in34.8 mm
10:00 PM 58.1°F14.5°C 55.2°F12.9°C 90% 0.6 mph S1.0 kmh S 2.5 mph4.0 kmh 29.94 in1013.9 mb 0.00 in0.0 mm 0.00 in0.0 mm 1.37 in34.8 mm
10:05 PM 58.1°F14.5°C 55.2°F12.9°C 90% Calm Calm -- 29.94 in1013.9 mb 0.00 in0.0 mm 0.00 in0.0 mm 1.37 in34.8 mm
10:10 PM 58.1°F14.5°C 55.2°F12.9°C 90% 0.1 mph NW0.2 kmh NW 1.6 mph2.6 kmh 29.94 in1013.9 mb 0.00 in0.0 mm 0.00 in0.0 mm 1.37 in34.8 mm
10:15 PM 58.1°F14.5°C 55.2°F12.9°C 90% 0.3 mph NW0.5 kmh NW 1.6 mph2.6 kmh 29.94 in1013.9 mb 0.00 in0.0 mm 0.00 in0.0 mm 1.37 in34.8 mm
10:20 PM 58.1°F14.5°C 55.2°F12.9°C 90% 0.3 mph NW0.5 kmh NW 1.6 mph2.6 kmh 29.94 in1013.9 mb 0.00 in0.0 mm 0.00 in0.0 mm 1.37 in34.8 mm
10:25 PM 57.9°F14.4°C 55.0°F12.8°C 90% Calm Calm -- 29.94 in1013.9 mb 0.00 in0.0 mm 0.00 in0.0 mm 1.37 in34.8 mm
10:30 PM 57.9°F14.4°C 55.0°F12.8°C 90% Calm Calm -- 29.94 in1013.9 mb 0.00 in0.0 mm 0.00 in0.0 mm 1.37 in34.8 mm
10:35 PM 57.9°F14.4°C 55.0°F12.8°C 90% Calm Calm -- 29.94 in1013.9 mb 0.00 in0.0 mm 0.00 in0.0 mm 1.37 in34.8 mm
10:37 PM 57.9°F14.4°C 55.0°F12.8°C 90% Calm Calm -- 29.94 in1013.9 mb 0.00 in0.0 mm 0.00 in0.0 mm 1.37 in34.8 mm
10:40 PM 57.9°F14.4°C 55.0°F12.8°C 90% Calm Calm -- 29.94 in1013.9 mb 0.00 in0.0 mm 0.00 in0.0 mm 1.37 in34.8 mm
10:45 PM 57.9°F14.4°C 55.0°F12.8°C 90% Calm Calm -- 29.93 in1013.5 mb 0.00 in0.0 mm 0.00 in0.0 mm 1.37 in34.8 mm
10:50 PM 57.9°F14.4°C 55.0°F12.8°C 90% Calm Calm -- 29.93 in1013.5 mb 0.00 in0.0 mm 0.00 in0.0 mm 1.37 in34.8 mm
10:55 PM 57.9°F14.4°C 55.0°F12.8°C 90% Calm Calm -- 29.93 in1013.5 mb 0.00 in0.0 mm 0.00 in0.0 mm 1.37 in34.8 mm
11:00 PM 57.7°F14.3°C 54.8°F12.7°C 90% Calm Calm -- 29.93 in1013.5 mb 0.00 in0.0 mm 0.00 in0.0 mm 0.93 in23.6 mm
11:05 PM 57.7°F14.3°C 54.8°F12.7°C 90% Calm Calm -- 29.93 in1013.5 mb 0.00 in0.0 mm 0.00 in0.0 mm 0.93 in23.6 mm
11:10 PM 57.7°F14.3°C 54.8°F12.7°C 90% Calm Calm -- 29.93 in1013.5 mb 0.00 in0.0 mm 0.00 in0.0 mm 0.93 in23.6 mm
11:15 PM 57.6°F14.2°C 54.6°F12.6°C 90% Calm Calm -- 29.93 in1013.5 mb 0.00 in0.0 mm 0.00 in0.0 mm 0.93 in23.6 mm
11:20 PM 57.6°F14.2°C 55.0°F12.8°C 91% 0.3 mph NNE0.5 kmh NNE 1.6 mph2.6 kmh 29.93 in1013.5 mb 0.00 in0.0 mm 0.00 in0.0 mm 0.93 in23.6 mm
11:25 PM 57.4°F14.1°C 54.8°F12.7°C 91% 0.3 mph NNE0.5 kmh NNE 1.6 mph2.6 kmh 29.93 in1013.5 mb 0.02 in0.5 mm 0.24 in6.1 mm 0.02 in0.5 mm
11:30 PM 57.4°F14.1°C 54.8°F12.7°C 91% Calm Calm -- 29.93 in1013.5 mb 0.02 in0.5 mm 0.00 in0.0 mm 0.02 in0.5 mm
11:35 PM 57.4°F14.1°C 54.8°F12.7°C 91% Calm Calm -- 29.93 in1013.5 mb 0.02 in0.5 mm 0.00 in0.0 mm 0.02 in0.5 mm
11:37 PM 57.4°F14.1°C 54.8°F12.7°C 91% Calm Calm -- 29.93 in1013.5 mb 0.02 in0.5 mm 0.00 in0.0 mm 0.02 in0.5 mm
11:40 PM 57.4°F14.1°C 54.8°F12.7°C 91% Calm Calm -- 29.93 in1013.5 mb 0.02 in0.5 mm 0.00 in0.0 mm 0.02 in0.5 mm
11:45 PM 57.4°F14.1°C 54.5°F12.5°C 90% Calm Calm -- 29.92 in1013.2 mb 0.02 in0.5 mm 0.00 in0.0 mm 0.02 in0.5 mm
11:50 PM 57.2°F14.0°C 54.3°F12.4°C 90% Calm Calm -- 29.93 in1013.5 mb 0.02 in0.5 mm 0.00 in0.0 mm 0.02 in0.5 mm
11:55 PM 57.0°F13.9°C 54.4°F12.4°C 91% Calm Calm -- 29.93 in1013.5 mb 0.02 in0.5 mm 0.00 in0.0 mm 0.02 in0.5 mm